Waters Bluff, Texas
Current Conditions -  °F | °C
As of 10:53 PM on Monday 26 Jan 2015 (Local Time) from KTYR Reporting Station
Clear Clear  
Wind Chill: 57°   Ceiling: Unl
Heat Index: 57°   Visibility: 10mi
Dew Point: 38°   Wind: 12mph
Humidity: 49%   Direction: 220°SW
Pressure: 30.08"   Gusts: NA
Location:  32.4644°N, 95.1125°W
Report Text: KTYR 270453Z AUTO 22010KT 10SM CLR 14/03 A3008 RMK AO2 SLP182 T01390033
Loading
Personal Weather Stations






























Interactive Weather Map New forecast layout! Learn more

10-Day Weather Forecast

Advertisements
Track Severe Weather on mobile